Aeroporto :
LOGIN :

Iscrizione | Disclaimer

   EN    FR    IT 

 










Sommario :    VFR   VFR Marginale   IFR   IFR Intensivo   IFR Molto Intensivo
Visibilità : 
Base nubi : 
>= 8 km
>= 3000ft
5 / 8 km
1000 / 3000 ft
1500m / 5 km
500 / 1000 ft
800 / 1500m
200 / 500 ft
< 800m
< 200 ft
Simboli :   Temporali  Nebbia  Neve Forte  Precipitazioni Forti  Vento > 20 kt
SIGMETs :   Varie  Temporali  Ghiacco  Turbolenza  Onda orograficha  Ceneri Vulcaniche






- Altitudine del aeroporto : 233 ft
- Codice IATA : REU


LERS - Reus Tarragona

ULTIMO METAR :
  • 221000Z 01008KT 9999 SCT021 BKN030 14/09 Q1021

METARs OBSOLETI :
  • 220930Z 36009KT 9999 FEW020 SCT030 13/08 Q1021
  • 220900Z 36009KT 9999 BKN022 BKN026 12/08 Q1021
  • 220830Z 35011KT 9999 BKN019 BKN024 12/07 Q1021
  • 220800Z 36009KT 9999 BKN020 BKN025 11/07 Q1021
  • 220730Z 36010KT 9999 FEW023 BKN029 11/07 Q1020

TAF AMD TAF LERS
Valido dal 22 a 09 ore il 23 a 09 ore UTC


220900Z 2209/2309 04015KT 9999 BKN020 TX15/2213Z TN06/2306Z
TEMPO 2212/2304 4000 RA
TEMPO 2216/2223 08018G30KT
PROB40
TEMPO 2301/2303 4000 SHRA FEW020TCU
BECMG 2302/2304 VRB04KT



MetMap, La meteo Aeronautica in un colpo d'occhio ! - Copyright ORBIFLY Dicembre 2007 - Disclaimer

ORBIFLY MET'MAP TEAM :

Programmazione e sviluppo : Alexandra Zaïnal
Concezione : Baudouin d'Aumeries
Aiuto per la programmazione : Marc-Olivier Méhu
Supporto tecnico e logistico : Manuel Goepfert
Aiuto per la traduzione : Arnaldo La Scala

Contatto : metmap@orbifly.com




FONTI E CREDITI :

   NOAA